Time;durP1;ratioP1;P1;durP2;ratioP2;P2;SDS_P1;SDS_P2;PMS_P1;PMS_P2;Temp;Humidity;BMP_temperature;BMP_pressure;BME280_temperature;BME280_humidity;BME280_pressure;Samples;Min_cycle;Max_cycle;Signal;HPM_P1;HPM_P2
2024/04/23 00:02:10;;;;;;;;;;;;;;;;;;5477231;25;19935;-66
2024/04/23 00:04:35;;;;;;;;;;;;;;;;;;5451545;26;19940;-65
2024/04/23 00:07:00;;;;;;;;;;;;;;;;;;5448967;26;20075;-65
2024/04/23 00:09:26;;;;;;;;;;;;;;;;;;5479520;25;19932;-65
2024/04/23 00:11:51;;;;;;;;;;;;;;;;;;5464223;26;19928;-65
2024/04/23 00:14:16;;;;;;;;;;;;;;;;;;5460964;25;19932;-65
2024/04/23 00:16:41;;;;;;;;;;;;;;;;;;5449219;26;19932;-65
2024/04/23 00:19:06;;;;;;;;;;;;;;;;;;5479580;25;19935;-65
2024/04/23 00:21:31;;;;;;;;;;;;;;;;;;5467944;25;19929;-65
2024/04/23 00:23:56;;;;;;;;;;;;;;;;;;5462547;26;20009;-65
2024/04/23 00:26:21;;;;;;;;;;;;;;;;;;5451559;26;20460;-65
2024/04/23 00:28:46;;;;;;;;;;;;;;;;;;5454194;26;19929;-65
2024/04/23 00:31:11;;;;;;;;;;;;;;;;;;5470795;25;19940;-64
2024/04/23 00:33:36;;;;;;;;;;;;;;;;;;5442501;25;19929;-65
2024/04/23 00:36:02;;;;;;;;;;;;;;;;;;5456688;26;19928;-66
2024/04/23 00:38:27;;;;;;;;;;;;;;;;;;5473229;26;20252;-65
2024/04/23 00:40:52;;;;;;;;;;;;;;;;;;5478792;25;19928;-65
2024/04/23 00:43:17;;;;;;;;;;;;;;;;;;5472137;25;19940;-65
2024/04/23 00:45:42;;;;;;;;;;;;;;;;;;5451974;25;19940;-65
2024/04/23 00:48:07;;;;;;;;;;;;;;;;;;5467894;26;19952;-66
2024/04/23 00:50:32;;;;;;;;;;;;;;;;;;5466953;26;20010;-65
2024/04/23 00:52:57;;;;;;;;;;;;;;;;;;5481702;25;20369;-65
2024/04/23 00:55:22;;;;;;;;;;;;;;;;;;5470850;25;20320;-65
2024/04/23 00:57:47;;;;;;;;;;;;;;;;;;5472770;25;19962;-65
2024/04/23 01:00:12;;;;;;;;;;;;;;;;;;5442216;26;19929;-65
2024/04/23 01:02:37;;;;;;;;;;;;;;;;;;5436876;26;20470;-65
2024/04/23 01:05:03;;;;;;;;;;;;;;;;;;5445109;26;19932;-65
2024/04/23 01:07:28;;;;;;;;;;;;;;;;;;5464454;26;19935;-65
2024/04/23 01:09:53;;;;;;;;;;;;;;;;;;5482105;25;19956;-65
2024/04/23 01:12:18;;;;;;;;;;;;;;;;;;5461541;25;19932;-65
2024/04/23 01:14:43;;;;;;;;;;;;;;;;;;5469800;25;19928;-65
2024/04/23 01:17:08;;;;;;;;;;;;;;;;;;5481748;26;20277;-65
2024/04/23 01:19:33;;;;;;;;;;;;;;;;;;5481861;26;19954;-65
2024/04/23 01:21:58;;;;;;;;;;;;;;;;;;5496280;25;19928;-65
2024/04/23 01:24:23;;;;;;;;;;;;;;;;;;5481211;25;19965;-65
2024/04/23 01:26:49;;;;;;;;;;;;;;;;;;5465965;25;19935;-65
2024/04/23 01:29:14;;;;;;;;;;;;;;;;;;5454127;26;19928;-64
2024/04/23 01:31:39;;;;;;;;;;;;;;;;;;5481347;25;20018;-65
2024/04/23 01:34:04;;;;;;;;;;;;;;;;;;5451576;26;20388;-65
2024/04/23 01:36:29;;;;;;;;;;;;;;;;;;5475362;25;19928;-65
2024/04/23 01:38:54;;;;;;;;;;;;;;;;;;5470233;26;19936;-65
2024/04/23 01:41:21;;;;;;;;;;;;;;;;;;5437510;26;19965;-65
2024/04/23 01:43:46;;;;;;;;;;;;;;;;;;5435528;26;19929;-65
2024/04/23 01:46:11;;;;;;;;;;;;;;;;;;5445210;26;19940;-65
2024/04/23 01:48:36;;;;;;;;;;;;;;;;;;5445023;26;19937;-65
2024/04/23 01:51:02;;;;;;;;;;;;;;;;;;5430235;26;19961;-65
2024/04/23 01:53:27;;;;;;;;;;;;;;;;;;5442079;26;19929;-65
2024/04/23 01:55:52;;;;;;;;;;;;;;;;;;5444036;26;19932;-65
2024/04/23 01:58:17;;;;;;;;;;;;;;;;;;5443203;26;19928;-65
2024/04/23 02:00:42;;;;;;;;;;;;;;;;;;5445194;26;19929;-65
2024/04/23 02:03:07;;;;;;;;;;;;;;;;;;5444646;26;20338;-65
2024/04/23 02:05:32;;;;;;;;;;;;;;;;;;5423622;26;20487;-65
2024/04/23 02:07:57;;;;;;;;;;;;;;;;;;5424544;26;19941;-65
2024/04/23 02:10:22;;;;;;;;;;;;;;;;;;5444662;26;19939;-65
2024/04/23 02:12:48;;;;;;;;;;;;;;;;;;5444001;26;19928;-65
2024/04/23 02:15:13;;;;;;;;;;;;;;;;;;5442683;26;19936;-64
2024/04/23 02:17:38;;;;;;;;;;;;;;;;;;5443840;26;19935;-65
2024/04/23 02:20:07;;;;;;;;;;;;;;;;;;5429767;26;19960;-65
2024/04/23 02:22:33;;;;;;;;;;;;;;;;;;5440306;26;19932;-65
2024/04/23 02:24:58;;;;;;;;;;;;;;;;;;5435687;26;19929;-65
2024/04/23 02:27:23;;;;;;;;;;;;;;;;;;5431409;26;19929;-65
2024/04/23 02:29:48;;;;;;;;;;;;;;;;;;5442147;26;19936;-65
2024/04/23 02:32:13;;;;;;;;;;;;;;;;;;5443206;26;20338;-65
2024/04/23 02:34:38;;;;;;;;;;;;;;;;;;5429225;26;19929;-65
2024/04/23 02:37:03;;;;;;;;;;;;;;;;;;5452771;26;19928;-65
2024/04/23 02:39:28;;;;;;;;;;;;;;;;;;5441985;26;19978;-65
2024/04/23 02:41:53;;;;;;;;;;;;;;;;;;5443504;26;19928;-65
2024/04/23 02:44:18;;;;;;;;;;;;;;;;;;5444007;26;19928;-65
2024/04/23 02:46:44;;;;;;;;;;;;;;;;;;5444035;26;20047;-65
2024/04/23 02:49:09;;;;;;;;;;;;;;;;;;5443878;26;20320;-65
2024/04/23 02:51:34;;;;;;;;;;;;;;;;;;5444369;26;19929;-65
2024/04/23 02:53:59;;;;;;;;;;;;;;;;;;5437909;26;19936;-65
2024/04/23 02:56:25;;;;;;;;;;;;;;;;;;5436154;26;20004;-65
2024/04/23 02:58:50;;;;;;;;;;;;;;;;;;5429651;26;19933;-65
2024/04/23 03:01:15;;;;;;;;;;;;;;;;;;5412271;26;19936;-65
2024/04/23 03:03:40;;;;;;;;;;;;;;;;;;5421945;26;19929;-65
2024/04/23 03:06:05;;;;;;;;;;;;;;;;;;5438935;26;19928;-65
2024/04/23 03:08:30;;;;;;;;;;;;;;;;;;5443345;26;19936;-65
2024/04/23 03:10:56;;;;;;;;;;;;;;;;;;5417855;26;19929;-65
2024/04/23 03:13:21;;;;;;;;;;;;;;;;;;5442765;26;19932;-65
2024/04/23 03:15:46;;;;;;;;;;;;;;;;;;5423906;26;19936;-65
2024/04/23 03:18:11;;;;;;;;;;;;;;;;;;5441496;26;20386;-65
2024/04/23 03:20:36;;;;;;;;;;;;;;;;;;5446065;26;19997;-65
2024/04/23 03:23:01;;;;;;;;;;;;;;;;;;5442653;26;19993;-65
2024/04/23 03:25:26;;;;;;;;;;;;;;;;;;5443908;26;19932;-64
2024/04/23 03:27:51;;;;;;;;;;;;;;;;;;5430201;26;20314;-65
2024/04/23 03:30:16;;;;;;;;;;;;;;;;;;5412519;26;20374;-65
2024/04/23 03:32:41;;;;;;;;;;;;;;;;;;5441800;26;19928;-65
2024/04/23 03:35:06;;;;;;;;;;;;;;;;;;5439801;26;19928;-65
2024/04/23 03:37:32;;;;;;;;;;;;;;;;;;5446469;26;19963;-65
2024/04/23 03:39:57;;;;;;;;;;;;;;;;;;5437118;26;20036;-64
2024/04/23 03:42:22;;;;;;;;;;;;;;;;;;5443178;26;19943;-65
2024/04/23 03:44:47;;;;;;;;;;;;;;;;;;5441197;26;20353;-65
2024/04/23 03:47:12;;;;;;;;;;;;;;;;;;5430184;26;19960;-65
2024/04/23 03:49:37;;;;;;;;;;;;;;;;;;5442865;26;20350;-65
2024/04/23 03:52:02;;;;;;;;;;;;;;;;;;5442562;26;19936;-65
2024/04/23 03:54:27;;;;;;;;;;;;;;;;;;5434556;26;20365;-65
2024/04/23 03:56:52;;;;;;;;;;;;;;;;;;5422326;26;19944;-65
2024/04/23 03:59:17;;;;;;;;;;;;;;;;;;5442692;26;19939;-65
2024/04/23 04:01:42;;;;;;;;;;;;;;;;;;5443067;26;19928;-65
2024/04/23 04:06:52;;;;;;;;;;;;;;;;;;5434644;26;20709;-65
2024/04/23 04:09:17;;;;;;;;;;;;;;;;;;5442537;26;20565;-65
2024/04/23 04:11:42;;;;;;;;;;;;;;;;;;5443133;26;19940;-65
2024/04/23 04:14:07;;;;;;;;;;;;;;;;;;5440260;26;19960;-65
2024/04/23 04:16:32;;;;;;;;;;;;;;;;;;5413998;26;19929;-65
2024/04/23 04:18:57;;;;;;;;;;;;;;;;;;5442809;26;20304;-65
2024/04/23 04:21:22;;;;;;;;;;;;;;;;;;5448208;26;19936;-65
2024/04/23 04:23:47;;;;;;;;;;;;;;;;;;5445013;26;19928;-64
2024/04/23 04:26:14;;;;;;;;;;;;;;;;;;5449321;26;19948;-65
2024/04/23 04:28:39;;;;;;;;;;;;;;;;;;5449603;26;20377;-64
2024/04/23 04:31:04;;;;;;;;;;;;;;;;;;5450285;26;20350;-65
2024/04/23 04:33:29;;;;;;;;;;;;;;;;;;5449561;26;20279;-64
2024/04/23 04:35:54;;;;;;;;;;;;;;;;;;5449254;26;19934;-65
2024/04/23 04:38:19;;;;;;;;;;;;;;;;;;5444632;26;19979;-64
2024/04/23 04:40:44;;;;;;;;;;;;;;;;;;5439652;26;19935;-64
2024/04/23 04:43:09;;;;;;;;;;;;;;;;;;5449501;26;19929;-64
2024/04/23 04:45:34;;;;;;;;;;;;;;;;;;5450017;26;19936;-65
2024/04/23 04:47:59;;;;;;;;;;;;;;;;;;5445473;26;20261;-64
2024/04/23 04:50:24;;;;;;;;;;;;;;;;;;5434637;26;19944;-65
2024/04/23 04:52:50;;;;;;;;;;;;;;;;;;5439748;26;19936;-65
2024/04/23 04:55:15;;;;;;;;;;;;;;;;;;5449072;26;19936;-64
2024/04/23 04:57:40;;;;;;;;;;;;;;;;;;5450593;26;19935;-65
2024/04/23 05:00:05;;;;;;;;;;;;;;;;;;5449688;26;19928;-65
2024/04/23 05:02:30;;;;;;;;;;;;;;;;;;5435551;26;19962;-65
2024/04/23 05:04:55;;;;;;;;;;;;;;;;;;5448530;26;19933;-64
2024/04/23 05:07:20;;;;;;;;;;;;;;;;;;5446269;26;19928;-64
2024/04/23 05:09:46;;;;;;;;;;;;;;;;;;5439870;26;19928;-65
2024/04/23 05:12:12;;;;;;;;;;;;;;;;;;5446257;26;20286;-65
2024/04/23 05:14:37;;;;;;;;;;;;;;;;;;5433430;26;20312;-65
2024/04/23 05:17:02;;;;;;;;;;;;;;;;;;5428409;26;19961;-65
2024/04/23 05:19:27;;;;;;;;;;;;;;;;;;5444455;26;20389;-65
2024/04/23 05:21:52;;;;;;;;;;;;;;;;;;5451281;26;20273;-65
2024/04/23 05:24:18;;;;;;;;;;;;;;;;;;5482486;26;19935;-65
2024/04/23 05:26:43;;;;;;;;;;;;;;;;;;5471239;26;20041;-65
2024/04/23 05:29:08;;;;;;;;;;;;;;;;;;5471663;25;19934;-65
2024/04/23 05:34:17;;;;;;;;;;;;;;;;;;5467483;25;19934;-65
2024/04/23 05:36:42;;;;;;;;;;;;;;;;;;5458551;26;19928;-65
2024/04/23 05:39:07;;;;;;;;;;;;;;;;;;5452452;26;20373;-66
2024/04/23 05:41:33;;;;;;;;;;;;;;;;;;5482185;26;19931;-66
2024/04/23 05:43:59;;;;;;;;;;;;;;;;;;5470421;25;19936;-65
2024/04/23 05:46:24;;;;;;;;;;;;;;;;;;5466894;25;19956;-65
2024/04/23 05:48:49;;;;;;;;;;;;;;;;;;5480465;25;19927;-66
2024/04/23 05:51:14;;;;;;;;;;;;;;;;;;5463803;25;20311;-65
2024/04/23 05:53:39;;;;;;;;;;;;;;;;;;5462497;25;20388;-66
2024/04/23 05:56:04;;;;;;;;;;;;;;;;;;5480313;25;19977;-66
2024/04/23 05:58:29;;;;;;;;;;;;;;;;;;5445225;26;19996;-66
2024/04/23 06:00:54;;;;;;;;;;;;;;;;;;5458909;26;19952;-66
2024/04/23 06:03:19;;;;;;;;;;;;;;;;;;5491169;25;19930;-66
2024/04/23 06:05:44;;;;;;;;;;;;;;;;;;5455095;25;19935;-66
2024/04/23 06:08:10;;;;;;;;;;;;;;;;;;5490994;25;19928;-66
2024/04/23 06:10:35;;;;;;;;;;;;;;;;;;5464186;26;19939;-66
2024/04/23 06:13:00;;;;;;;;;;;;;;;;;;5481737;26;20357;-66
2024/04/23 06:15:25;;;;;;;;;;;;;;;;;;5482518;26;19935;-66
2024/04/23 06:17:50;;;;;;;;;;;;;;;;;;5481595;26;20331;-66
2024/04/23 06:20:15;;;;;;;;;;;;;;;;;;5482448;25;19928;-64
2024/04/23 06:22:41;;;;;;;;;;;;;;;;;;5481230;25;19935;-66
2024/04/23 06:25:07;;;;;;;;;;;;;;;;;;5444641;26;19935;-66
2024/04/23 06:27:32;;;;;;;;;;;;;;;;;;5464645;25;19929;-67
2024/04/23 06:29:57;;;;;;;;;;;;;;;;;;5450674;25;19936;-66
2024/04/23 06:32:22;;;;;;;;;;;;;;;;;;5457664;25;19928;-66
2024/04/23 06:34:47;;;;;;;;;;;;;;;;;;5452523;26;19928;-66
2024/04/23 06:37:12;;;;;;;;;;;;;;;;;;5465526;26;20397;-66
2024/04/23 06:39:37;;;;;;;;;;;;;;;;;;5466245;26;19927;-64
2024/04/23 06:42:03;;;;;;;;;;;;;;;;;;5480514;26;19934;-68
2024/04/23 06:44:28;;;;;;;;;;;;;;;;;;5478963;26;19940;-67
2024/04/23 06:46:53;;;;;;;;;;;;;;;;;;5480395;26;19940;-68
2024/04/23 06:49:19;;;;;;;;;;;;;;;;;;5464076;25;20478;-65
2024/04/23 06:51:44;;;;;;;;;;;;;;;;;;5465595;26;19996;-65
2024/04/23 06:54:09;;;;;;;;;;;;;;;;;;5478100;25;20388;-67
2024/04/23 06:56:34;;;;;;;;;;;;;;;;;;5466325;25;19937;-66
2024/04/23 06:59:00;;;;;;;;;;;;;;;;;;5465007;25;19965;-66
2024/04/23 07:01:25;;;;;;;;;;;;;;;;;;5469240;25;19927;-67
2024/04/23 07:03:50;;;;;;;;;;;;;;;;;;5462030;26;20276;-67
2024/04/23 07:06:15;;;;;;;;;;;;;;;;;;5470750;25;19943;-67
2024/04/23 07:08:40;;;;;;;;;;;;;;;;;;5456094;25;19964;-67
2024/04/23 07:11:05;;;;;;;;;;;;;;;;;;5475940;25;19928;-67
2024/04/23 07:13:30;;;;;;;;;;;;;;;;;;5457972;25;19929;-67
2024/04/23 07:15:55;;;;;;;;;;;;;;;;;;5470681;25;20350;-66
2024/04/23 07:18:20;;;;;;;;;;;;;;;;;;5457005;26;20001;-67
2024/04/23 07:20:45;;;;;;;;;;;;;;;;;;5453329;26;19996;-67
2024/04/23 07:23:11;;;;;;;;;;;;;;;;;;5444956;26;20147;-67
2024/04/23 07:25:36;;;;;;;;;;;;;;;;;;5465174;26;19972;-67
2024/04/23 07:28:01;;;;;;;;;;;;;;;;;;5473282;26;20256;-68
2024/04/23 07:30:27;;;;;;;;;;;;;;;;;;5465106;25;19928;-67
2024/04/23 07:32:54;;;;;;;;;;;;;;;;;;5478330;25;19927;-67
2024/04/23 07:35:19;;;;;;;;;;;;;;;;;;5476587;25;19946;-67
2024/04/23 07:37:44;;;;;;;;;;;;;;;;;;5472811;25;19936;-67
2024/04/23 07:40:10;;;;;;;;;;;;;;;;;;5467474;26;19939;-67
2024/04/23 07:42:35;;;;;;;;;;;;;;;;;;5471720;26;20450;-67
2024/04/23 07:45:00;;;;;;;;;;;;;;;;;;5473797;25;19927;-67
2024/04/23 07:47:25;;;;;;;;;;;;;;;;;;5472745;25;20008;-67
2024/04/23 07:49:50;;;;;;;;;;;;;;;;;;5453480;25;20282;-67
2024/04/23 07:52:15;;;;;;;;;;;;;;;;;;5463632;25;19934;-67
2024/04/23 07:54:40;;;;;;;;;;;;;;;;;;5476589;26;20362;-67
2024/04/23 07:57:05;;;;;;;;;;;;;;;;;;5461527;26;19943;-67
2024/04/23 07:59:30;;;;;;;;;;;;;;;;;;5464188;26;19932;-67
2024/04/23 08:01:55;;;;;;;;;;;;;;;;;;5463498;26;19935;-67
2024/04/23 08:04:21;;;;;;;;;;;;;;;;;;5493092;25;20004;-67
2024/04/23 08:06:46;;;;;;;;;;;;;;;;;;5500067;26;19960;-67
2024/04/23 08:09:11;;;;;;;;;;;;;;;;;;5500761;26;20292;-67
2024/04/23 08:11:36;;;;;;;;;;;;;;;;;;5489322;26;20429;-69
2024/04/23 08:14:01;;;;;;;;;;;;;;;;;;5455059;26;19992;-68
2024/04/23 08:16:26;;;;;;;;;;;;;;;;;;5452929;25;19939;-69
2024/04/23 08:18:51;;;;;;;;;;;;;;;;;;5515888;25;19939;-70
2024/04/23 08:21:16;;;;;;;;;;;;;;;;;;5499751;26;19931;-69
2024/04/23 08:23:41;;;;;;;;;;;;;;;;;;5508917;26;19928;-69
2024/04/23 08:26:14;;;;;;;;;;;;;;;;;;5497903;25;20350;-69
2024/04/23 08:28:40;;;;;;;;;;;;;;;;;;5499057;25;19928;-70
2024/04/23 08:31:05;;;;;;;;;;;;;;;;;;5478449;25;19940;-68
2024/04/23 08:33:30;;;;;;;;;;;;;;;;;;5478048;25;19928;-69
2024/04/23 08:35:55;;;;;;;;;;;;;;;;;;5483301;26;19940;-70
2024/04/23 08:38:21;;;;;;;;;;;;;;;;;;5475352;25;19928;-68
2024/04/23 08:40:46;;;;;;;;;;;;;;;;;;5494096;26;20328;-68
2024/04/23 08:43:12;;;;;;;;;;;;;;;;;;5464979;26;20270;-70
2024/04/23 08:45:37;;;;;;;;;;;;;;;;;;5417349;26;19936;-68
2024/04/23 08:48:02;;;;;;;;;;;;;;;;;;5435793;26;20285;-68
2024/04/23 08:50:27;;;;;;;;;;;;;;;;;;5435178;26;19935;-70
2024/04/23 08:52:52;;;;;;;;;;;;;;;;;;5410744;26;20001;-68
2024/04/23 08:55:17;;;;;;;;;;;;;;;;;;5419576;26;19940;-69
2024/04/23 08:57:43;;;;;;;;;;;;;;;;;;5426126;26;19997;-70
2024/04/23 09:00:09;;;;;;;;;;;;;;;;;;5423140;26;20362;-68
2024/04/23 09:02:34;;;;;;;;;;;;;;;;;;5424368;26;20265;-69
2024/04/23 09:05:00;;;;;;;;;;;;;;;;;;5436757;26;19936;-69
2024/04/23 09:07:25;;;;;;;;;;;;;;;;;;5424650;26;19998;-69
2024/04/23 09:09:50;;;;;;;;;;;;;;;;;;5472680;26;19935;-69
2024/04/23 09:12:15;;;;;;;;;;;;;;;;;;5469454;26;19928;-69
2024/04/23 09:14:44;;;;;;;;;;;;;;;;;;5414550;26;19936;-68
2024/04/23 09:17:09;;;;;;;;;;;;;;;;;;5438614;26;19928;-69
2024/04/23 09:19:34;;;;;;;;;;;;;;;;;;5457150;26;19929;-69
2024/04/23 09:21:59;;;;;;;;;;;;;;;;;;5473028;26;19939;-69
2024/04/23 09:24:29;;;;;;;;;;;;;;;;;;5488462;25;19928;-68
2024/04/23 09:26:54;;;;;;;;;;;;;;;;;;5492762;26;20266;-68
2024/04/23 09:29:19;;;;;;;;;;;;;;;;;;5451159;26;20254;-68
2024/04/23 09:31:44;;;;;;;;;;;;;;;;;;5445073;26;19936;-68
2024/04/23 09:34:12;;;;;;;;;;;;;;;;;;5475484;26;19935;-69
2024/04/23 09:36:38;;;;;;;;;;;;;;;;;;5428367;26;19929;-69
2024/04/23 09:39:04;;;;;;;;;;;;;;;;;;5429281;26;19929;-69
2024/04/23 09:41:31;;;;;;;;;;;;;;;;;;5436906;26;19944;-69
2024/04/23 09:43:56;;;;;;;;;;;;;;;;;;5427337;26;19936;-69
2024/04/23 09:46:22;;;;;;;;;;;;;;;;;;5426820;26;19943;-69
2024/04/23 09:48:47;;;;;;;;;;;;;;;;;;5480464;25;20412;-68
2024/04/23 09:51:12;;;;;;;;;;;;;;;;;;5484682;26;20352;-68
2024/04/23 09:53:37;;;;;;;;;;;;;;;;;;5462726;26;19932;-68
2024/04/23 09:56:03;;;;;;;;;;;;;;;;;;5452097;26;20054;-68
2024/04/23 09:58:28;;;;;;;;;;;;;;;;;;5466793;26;19928;-68
2024/04/23 10:00:53;;;;;;;;;;;;;;;;;;5472067;25;20350;-68
2024/04/23 10:03:18;;;;;;;;;;;;;;;;;;5485407;26;20000;-68
2024/04/23 10:05:46;;;;;;;;;;;;;;;;;;5472250;25;19996;-68
2024/04/23 10:08:11;;;;;;;;;;;;;;;;;;5488680;25;20045;-69
2024/04/23 10:10:36;;;;;;;;;;;;;;;;;;5472155;26;20464;-69
2024/04/23 10:13:03;;;;;;;;;;;;;;;;;;5488837;25;21264;-68
2024/04/23 10:15:28;;;;;;;;;;;;;;;;;;5507568;25;19934;-69
2024/04/23 10:17:53;;;;;;;;;;;;;;;;;;5477137;25;20263;-69
2024/04/23 10:20:19;;;;;;;;;;;;;;;;;;5465770;25;19956;-69
2024/04/23 10:22:44;;;;;;;;;;;;;;;;;;5475774;25;19957;-69
2024/04/23 10:25:10;;;;;;;;;;;;;;;;;;5491324;25;20423;-69
2024/04/23 10:27:37;;;;;;;;;;;;;;;;;;5480413;25;19939;-70
2024/04/23 10:30:03;;;;;;;;;;;;;;;;;;5469901;25;19960;-70
2024/04/23 10:32:28;;;;;;;;;;;;;;;;;;5471917;25;19939;-70
2024/04/23 10:34:55;;;;;;;;;;;;;;;;;;5476846;26;19928;-69
2024/04/23 10:37:21;;;;;;;;;;;;;;;;;;5478263;25;20357;-69
2024/04/23 10:39:46;;;;;;;;;;;;;;;;;;5464669;25;20003;-69
2024/04/23 10:42:11;;;;;;;;;;;;;;;;;;5471577;26;20369;-69
2024/04/23 10:44:36;;;;;;;;;;;;;;;;;;5457845;26;19978;-69
2024/04/23 10:47:01;;;;;;;;;;;;;;;;;;5476583;26;19964;-70
2024/04/23 10:49:26;;;;;;;;;;;;;;;;;;5473521;26;19928;-70
2024/04/23 10:51:52;;;;;;;;;;;;;;;24.51;nan;100444.56;5476164;25;19936;-70
2024/04/23 10:54:20;;;;;;;;;;;;;;;23.20;nan;100432.63;5447789;26;19944;-69
2024/04/23 10:56:45;;;;;;;;;;;;;;;;;;5457432;26;19928;-69
2024/04/23 10:59:13;;;;;;;;;;;;;;;23.40;nan;100434.94;5465379;26;19939;-70
2024/04/23 11:01:38;;;;;;;;;;;;;;;;;;5470716;26;19944;-70
2024/04/23 11:04:03;;;;;;;;;;;;;;;;;;5463873;25;19931;-68
2024/04/23 11:06:28;;;;;;;;;;;;;;;;;;5475191;26;19936;-68
2024/04/23 11:08:54;;;;;;;;;;;;;;;;;;5470453;26;19935;-68
2024/04/23 11:11:19;;;;;;;;;;;;;;;;;;5453603;26;20350;-69
2024/04/23 11:13:44;;;;;;;;;;;;;;;;;;5470128;26;19995;-68
2024/04/23 11:16:09;;;;;;;;;;;;;;;;;;5486052;25;19995;-68
2024/04/23 11:18:34;;;;;;;;;;;;;;;;;;5501413;26;19952;-70
2024/04/23 11:20:59;;;;;;;;;;;;;;;;;;5459647;26;19944;-67
2024/04/23 11:23:24;;;;;;;;;;;;;;;;;;5439893;25;20315;-67
2024/04/23 11:25:49;;;;;;;;;;;;;;;24.41;nan;100412.75;5453744;26;19979;-68
2024/04/23 11:28:15;;;;;;;;;;;;;;;;;;5509667;25;19938;-68
2024/04/23 11:30:40;;;;;;;;;;;;;;;24.26;nan;100407.09;5495302;26;19928;-68
2024/04/23 11:33:07;;;;;;;;;;;;;;;;;;5494283;25;19927;-70
2024/04/23 11:35:32;;;;;;;;;;;;;;;;;;5481553;25;19928;-68
2024/04/23 11:37:57;;;;;;;;;;;;;;;;;;5457321;26;19928;-68
2024/04/23 11:40:22;;;;;;;;;;;;;;;23.70;nan;100383.41;5480690;26;19997;-67
2024/04/23 11:42:47;;;;;;;;;;;;;;;;;;5426836;26;19933;-69
2024/04/23 11:45:13;;;;;;;;;;;;;;;;;;5428433;26;19936;-67
2024/04/23 11:47:38;;;;;;;;;;;;;;;;;;5432463;26;19929;-68
2024/04/23 11:50:04;;;;;;;;;;;;;;;;;;5488418;26;19939;-67
2024/04/23 11:52:30;;;;;;;;;;;;;;;;;;5488486;25;20387;-67
2024/04/23 11:54:55;;;;;;;;;;;;;;;;;;5459954;25;20278;-66
2024/04/23 11:57:20;;;;;;;;;;;;;;;;;;5464257;25;20144;-67
2024/04/23 11:59:45;;;;;;;;;;;;;;;;;;5446963;26;19936;-66
2024/04/23 12:02:10;;;;;;;;;;;;;;;;;;5441229;26;19968;-67
2024/04/23 12:04:35;;;;;;;;;;;;;;;;;;5434042;26;20372;-67
2024/04/23 12:07:00;;;;;;;;;;;;;;;;;;5419557;26;19937;-67
2024/04/23 12:09:26;;;;;;;;;;;;;;;;;;5430190;26;19933;-67
2024/04/23 12:11:51;;;;;;;;;;;;;;;;;;5471949;26;19928;-67
2024/04/23 12:14:17;;;;;;;;;;;;;;;;;;5447161;25;19928;-71
2024/04/23 12:16:42;;;;;;;;;;;;;;;;;;5450333;26;19940;-67
2024/04/23 12:19:07;;;;;;;;;;;;;;;;;;5471174;26;21097;-68
2024/04/23 12:21:32;;;;;;;;;;;;;;;;;;5477339;26;19932;-67
2024/04/23 12:23:57;;;;;;;;;;;;;;;;;;5437646;26;19935;-68
2024/04/23 12:26:22;;;;;;;;;;;;;;;;;;5448779;25;19936;-67
2024/04/23 12:28:47;;;;;;;;;;;;;;;;;;5446186;26;19928;-69
2024/04/23 12:31:13;;;;;;;;;;;;;;;;;;5512595;25;19928;-68
2024/04/23 12:33:38;;;;;;;;;;;;;;;;;;5488861;26;20322;-67
2024/04/23 12:36:04;;;;;;;;;;;;;;;;;;5461579;26;19935;-67
2024/04/23 12:38:29;;;;;;;;;;;;;;;;;;5478894;25;19975;-67
2024/04/23 12:40:55;;;;;;;;;;;;;;;;;;5468938;26;20353;-68
2024/04/23 12:43:21;;;;;;;;;;;;;;;;;;5462815;26;19932;-68
2024/04/23 12:45:46;;;;;;;;;;;;;;;;;;5473639;25;20387;-67
2024/04/23 12:48:11;;;;;;;;;;;;;;;;;;5490664;25;20396;-67
2024/04/23 12:50:37;;;;;;;;;;;;;;;;;;5489602;26;19928;-67
2024/04/23 12:53:02;;;;;;;;;;;;;;;;;;5481110;25;19943;-67
2024/04/23 12:55:28;;;;;;;;;;;;;;;;;;5483682;25;20277;-66
2024/04/23 12:57:53;;;;;;;;;;;;;;;;;;5472419;25;19928;-69
2024/04/23 13:00:19;;;;;;;;;;;;;;;;;;5474731;25;20246;-66
2024/04/23 13:02:44;;;;;;;;;;;;;;;;;;5478671;25;19977;-66
2024/04/23 13:05:09;;;;;;;;;;;;;;;;;;5496330;25;19928;-66
2024/04/23 13:07:34;;;;;;;;;;;;;;;;;;5475409;25;20308;-68
2024/04/23 13:09:59;;;;;;;;;;;;;;;;;;5468424;25;19935;-67
2024/04/23 13:12:24;;;;;;;;;;;;;;;;;;5515845;25;19935;-66
2024/04/23 13:14:49;;;;;;;;;;;;;;;;;;5492500;25;19960;-66
2024/04/23 13:17:14;;;;;;;;;;;;;;;;;;5485211;25;19968;-67
2024/04/23 13:19:39;;;;;;;;;;;;;;;;;;5472777;25;19940;-66
2024/04/23 13:22:07;;;;;;;;;;;;;;;;;;5493377;25;20415;-66
2024/04/23 13:24:33;;;;;;;;;;;;;;;;;;5466570;25;19927;-66
2024/04/23 13:26:58;;;;;;;;;;;;;;;;;;5486276;25;19935;-66
2024/04/23 13:29:23;;;;;;;;;;;;;;;;;;5511544;25;19954;-67
2024/04/23 13:31:49;;;;;;;;;;;;;;;;;;5494021;25;19939;-66
2024/04/23 13:34:14;;;;;;;;;;;;;;;;;;5485240;25;19935;-66
2024/04/23 13:36:39;;;;;;;;;;;;;;;;;;5472965;26;19935;-69
2024/04/23 13:39:05;;;;;;;;;;;;;;;;;;5469584;26;19939;-66
2024/04/23 13:41:30;;;;;;;;;;;;;;;;;;5490022;25;19943;-66
2024/04/23 13:43:55;;;;;;;;;;;;;;;;;;5438643;25;19995;-67
2024/04/23 13:46:20;;;;;;;;;;;;;;;;;;5490757;25;20765;-68
2024/04/23 13:48:45;;;;;;;;;;;;;;;;;;5475152;26;19996;-67
2024/04/23 13:51:10;;;;;;;;;;;;;;;;;;5487602;26;19928;-67
2024/04/23 13:53:35;;;;;;;;;;;;;;;;;;5483712;26;20776;-66
2024/04/23 13:56:00;;;;;;;;;;;;;;;;;;5481150;25;19951;-66
2024/04/23 13:58:25;;;;;;;;;;;;;;;;;;5433311;26;20392;-67
2024/04/23 14:00:52;;;;;;;;;;;;;;;;;;5443141;26;20353;-67
2024/04/23 14:03:17;;;;;;;;;;;;;;;;;;5437265;26;19943;-67
2024/04/23 14:05:42;;;;;;;;;;;;;;;;;;5438976;26;19932;-67
2024/04/23 14:08:08;;;;;;;;;;;;;;;;;;5440242;26;19963;-68
2024/04/23 14:10:33;;;;;;;;;;;;;;;;;;5424222;26;19953;-66
2024/04/23 14:12:58;;;;;;;;;;;;;;;;;;5426044;26;20423;-67
2024/04/23 14:15:23;;;;;;;;;;;;;;;;;;5458655;26;19935;-68
2024/04/23 14:17:48;;;;;;;;;;;;;;;;;;5451607;26;19968;-68
2024/04/23 14:20:13;;;;;;;;;;;;;;;;;;5448419;25;19947;-67
2024/04/23 14:22:38;;;;;;;;;;;;;;;;;;5466924;26;19935;-68
2024/04/23 14:25:04;;;;;;;;;;;;;;;;;;5475878;25;19935;-66
2024/04/23 14:27:30;;;;;;;;;;;;;;;;;;5486168;25;19932;-67
2024/04/23 14:29:55;;;;;;;;;;;;;;;;;;5451529;25;19929;-68
2024/04/23 14:32:21;;;;;;;;;;;;;;;;;;5473377;25;19959;-69
2024/04/23 14:34:46;;;;;;;;;;;;;;;;;;5428323;26;19936;-67
2024/04/23 14:37:11;;;;;;;;;;;;;;;;;;5428943;26;20261;-66
2024/04/23 14:39:36;;;;;;;;;;;;;;;;;;5431532;26;19929;-66
2024/04/23 14:42:01;;;;;;;;;;;;;;;;;;5428564;26;20365;-68
2024/04/23 14:44:27;;;;;;;;;;;;;;;;;;5417562;26;19988;-67
2024/04/23 14:46:52;;;;;;;;;;;;;;;;;;5431942;26;19937;-66
2024/04/23 14:49:17;;;;;;;;;;;;;;;;;;5426988;26;19928;-66
2024/04/23 14:51:42;;;;;;;;;;;;;;;;;;5442948;26;20481;-65
2024/04/23 14:54:07;;;;;;;;;;;;;;;;;;5431483;26;19973;-66
2024/04/23 14:56:32;;;;;;;;;;;;;;;;;;5415898;26;19928;-65
2024/04/23 14:58:59;;;;;;;;;;;;;;;;;;5443982;26;20369;-66
2024/04/23 15:01:24;;;;;;;;;;;;;;;;;;5428930;26;19992;-65
2024/04/23 15:03:50;;;;;;;;;;;;;;;;;;5433020;26;19933;-65
2024/04/23 15:06:16;;;;;;;;;;;;;;;;;;5423559;26;19929;-65
2024/04/23 15:08:41;;;;;;;;;;;;;;;;;;5444357;26;20365;-65
2024/04/23 15:11:06;;;;;;;;;;;;;;;;;;5444054;26;20357;-65
2024/04/23 15:13:31;;;;;;;;;;;;;;;;;;5438158;26;19929;-65
2024/04/23 15:15:56;;;;;;;;;;;;;;;;;;5438122;26;19929;-65
2024/04/23 15:18:21;;;;;;;;;;;;;;;;;;5442841;26;20475;-65
2024/04/23 15:20:46;;;;;;;;;;;;;;;;;;5459941;26;19928;-65
2024/04/23 15:23:11;;;;;;;;;;;;;;;;;;5465301;26;19931;-65
2024/04/23 15:25:37;;;;;;;;;;;;;;;;;;5494632;26;20374;-65
2024/04/23 15:28:02;;;;;;;;;;;;;;;;;;5507579;26;19928;-65
2024/04/23 15:30:27;;;;;;;;;;;;;;;;;;5470500;25;20600;-65
2024/04/23 15:32:52;;;;;;;;;;;;;;;;;;5464106;26;19928;-65
2024/04/23 15:35:17;;;;;;;;;;;;;;;;;;5486863;26;19935;-65
2024/04/23 15:37:42;;;;;;;;;;;;;;;;;;5454468;26;20266;-65
2024/04/23 15:40:07;;;;;;;;;;;;;;;;;;5474001;25;19960;-65
2024/04/23 15:42:35;;;;;;;;;;;;;;;;;;5469831;26;19935;-65
2024/04/23 15:45:00;;;;;;;;;;;;;;;;;;5480779;26;19928;-65
2024/04/23 15:47:25;;;;;;;;;;;;;;;;;;5481058;26;19928;-65
2024/04/23 15:49:51;;;;;;;;;;;;;;;;;;5482134;25;20269;-65
2024/04/23 15:52:16;;;;;;;;;;;;;;;;;;5417087;26;20221;-65
2024/04/23 15:54:41;;;;;;;;;;;;;;;;;;5443611;26;19940;-65
2024/04/23 15:57:07;;;;;;;;;;;;;;;;;;5443960;26;19961;-65
2024/04/23 15:59:33;;;;;;;;;;;;;;;;;;5439635;26;19929;-65
2024/04/23 16:01:58;;;;;;;;;;;;;;;;;;5443739;26;19936;-65
2024/04/23 16:04:23;;;;;;;;;;;;;;;;;;5442742;26;19929;-65
2024/04/23 16:06:48;;;;;;;;;;;;;;;;;;5442967;26;20294;-65
2024/04/23 16:09:13;;;;;;;;;;;;;;;;;;5442963;26;20405;-65
2024/04/23 16:11:39;;;;;;;;;;;;;;;;;;5414391;26;19997;-65
2024/04/23 16:14:06;;;;;;;;;;;;;;;;;;5421449;26;19961;-65
2024/04/23 16:16:31;;;;;;;;;;;;;;;;;;5427260;26;19936;-65
2024/04/23 16:18:56;;;;;;;;;;;;;;;;;;5432432;26;20372;-65
2024/04/23 16:21:21;;;;;;;;;;;;;;;;;;5451680;26;19936;-65
2024/04/23 16:23:46;;;;;;;;;;;;;;;;;;5457772;25;19933;-65
2024/04/23 16:26:13;;;;;;;;;;;;;;;;;;5459453;25;19935;-65
2024/04/23 16:28:38;;;;;;;;;;;;;;;;;;5479826;25;19928;-65
2024/04/23 16:31:03;;;;;;;;;;;;;;;;;;5479507;26;19928;-65
2024/04/23 16:33:28;;;;;;;;;;;;;;;;;;5465081;26;19935;-65